createdAt,value
2022-10-31T00:00:07.020Z,101472.94
2022-10-31T00:05:09.386Z,101469.66
2022-10-31T00:10:11.200Z,101458.84
2022-10-31T00:15:13.013Z,101459.50
2022-10-31T00:20:15.004Z,101454.41
2022-10-31T00:25:16.818Z,101456.38
2022-10-31T00:30:18.576Z,101450.69
2022-10-31T00:35:20.383Z,101447.56
2022-10-31T00:40:22.376Z,101437.66
2022-10-31T00:45:24.112Z,101432.38
2022-10-31T00:50:25.995Z,101441.28
2022-10-31T00:55:27.848Z,101452.06
2022-10-31T01:00:29.610Z,101443.06
2022-10-31T01:05:31.612Z,101452.91
2022-10-31T01:10:33.511Z,101440.31
2022-10-31T01:15:35.275Z,101452.41
2022-10-31T01:20:37.089Z,101443.84
2022-10-31T01:25:39.134Z,101442.59
2022-10-31T01:30:41.034Z,101443.59
2022-10-31T01:35:42.992Z,101443.59
2022-10-31T01:40:45.204Z,101441.81
2022-10-31T01:45:55.557Z,101440.00
2022-10-31T01:50:57.486Z,101439.03
2022-10-31T01:56:01.342Z,101429.22
2022-10-31T02:01:07.642Z,101430.06
2022-10-31T02:06:23.219Z,101431.34
2022-10-31T02:11:25.350Z,101424.09
2022-10-31T02:16:27.370Z,101418.69
2022-10-31T02:21:49.565Z,101433.34
2022-10-31T02:26:54.313Z,101433.69
2022-10-31T02:32:16.125Z,101428.88
2022-10-31T02:37:23.992Z,101419.63
2022-10-31T02:42:54.144Z,101414.63
2022-10-31T02:48:01.426Z,101409.72
2022-10-31T02:53:04.059Z,101404.38
2022-10-31T03:03:37.996Z,101416.84
2022-10-31T03:09:32.414Z,101415.94
2022-10-31T03:14:39.938Z,101399.63
2022-10-31T03:19:46.919Z,101397.66
2022-10-31T03:24:52.283Z,101395.31
2022-10-31T03:29:57.356Z,101387.38
2022-10-31T03:35:02.257Z,101392.44
2022-10-31T03:40:07.310Z,101394.97
2022-10-31T03:45:16.101Z,101386.50
2022-10-31T03:50:18.558Z,101393.22
2022-10-31T03:55:25.499Z,101388.34
2022-10-31T04:00:27.652Z,101392.78
2022-10-31T04:05:30.775Z,101399.81
2022-10-31T04:10:34.176Z,101398.75
2022-10-31T04:15:38.280Z,101384.09
2022-10-31T04:20:42.382Z,101388.56
2022-10-31T04:25:44.107Z,101393.94
2022-10-31T04:30:46.033Z,101397.28
2022-10-31T04:35:49.119Z,101388.56
2022-10-31T04:40:51.091Z,101380.19
2022-10-31T04:45:53.200Z,101382.97
2022-10-31T04:51:03.174Z,101379.09
2022-10-31T04:56:05.408Z,101371.25
2022-10-31T05:01:07.207Z,101383.66
2022-10-31T05:06:09.403Z,101377.09
2022-10-31T05:11:11.186Z,101360.56
2022-10-31T05:16:13.122Z,101359.16
2022-10-31T05:21:15.012Z,101357.88
2022-10-31T05:26:16.791Z,101361.25
2022-10-31T05:31:18.701Z,101360.56
2022-10-31T05:36:24.732Z,101355.00
2022-10-31T05:41:26.609Z,101354.25
2022-10-31T05:46:28.822Z,101348.72
2022-10-31T05:51:30.636Z,101344.84
2022-10-31T05:56:32.491Z,101332.84
2022-10-31T06:01:34.474Z,101326.13
2022-10-31T06:06:36.507Z,101327.91
2022-10-31T06:11:38.580Z,101326.38
2022-10-31T06:16:40.348Z,101335.38
2022-10-31T06:21:42.222Z,101330.94
2022-10-31T06:26:44.124Z,101333.53
2022-10-31T06:31:46.022Z,101323.81
2022-10-31T06:36:48.641Z,101323.13
2022-10-31T06:41:50.367Z,101319.41
2022-10-31T06:46:52.640Z,101331.91
2022-10-31T06:51:54.467Z,101347.59
2022-10-31T06:56:56.330Z,101346.22
2022-10-31T07:01:59.890Z,101340.97
2022-10-31T07:07:01.851Z,101350.63
2022-10-31T07:12:03.727Z,101344.84
2022-10-31T07:17:05.595Z,101346.84
2022-10-31T07:22:07.450Z,101344.25
2022-10-31T07:27:09.266Z,101347.00
2022-10-31T07:32:11.194Z,101346.06
2022-10-31T07:37:13.135Z,101354.25
2022-10-31T07:42:15.242Z,101354.84
2022-10-31T07:47:17.214Z,101352.00
2022-10-31T07:52:18.935Z,101358.22
2022-10-31T07:57:24.141Z,101354.59
2022-10-31T08:02:26.962Z,101354.97
2022-10-31T08:07:29.903Z,101356.41
2022-10-31T08:12:31.806Z,101346.91
2022-10-31T08:17:37.015Z,101341.56
2022-10-31T08:22:42.845Z,101341.66
2022-10-31T08:27:50.477Z,101330.97
2022-10-31T08:33:15.487Z,101309.88
2022-10-31T08:38:17.469Z,101300.94
2022-10-31T08:43:20.066Z,101303.19
2022-10-31T08:48:22.744Z,101307.03
2022-10-31T08:53:24.786Z,101296.72
2022-10-31T08:58:27.038Z,101283.34
2022-10-31T09:03:33.126Z,101280.94
2022-10-31T09:08:34.949Z,101268.16
2022-10-31T09:13:41.187Z,101255.84
2022-10-31T09:18:43.479Z,101257.75
2022-10-31T09:23:45.418Z,101264.56
2022-10-31T09:28:47.511Z,101250.50
2022-10-31T09:33:49.403Z,101243.53
2022-10-31T09:38:52.944Z,101234.47
2022-10-31T09:44:23.925Z,101221.81
2022-10-31T09:49:32.764Z,101223.34
2022-10-31T09:54:47.348Z,101204.88
2022-10-31T09:59:50.653Z,101198.00
2022-10-31T10:04:59.651Z,101181.13
2022-10-31T10:10:03.618Z,101185.16
2022-10-31T10:15:29.830Z,101200.44
2022-10-31T10:20:42.604Z,101193.78
2022-10-31T10:25:49.425Z,101193.63
2022-10-31T10:31:16.655Z,101197.16
2022-10-31T10:36:26.930Z,101200.63
2022-10-31T10:41:34.523Z,101193.66
2022-10-31T10:47:22.255Z,101176.22
2022-10-31T10:52:42.089Z,101156.25
2022-10-31T10:58:03.788Z,101153.28
2022-10-31T11:03:06.637Z,101154.19
2022-10-31T11:08:09.187Z,101153.41
2022-10-31T11:13:14.115Z,101140.31
2022-10-31T11:23:45.542Z,101111.69
2022-10-31T11:29:00.781Z,101103.19
2022-10-31T11:34:06.071Z,101094.69
2022-10-31T11:39:18.271Z,101088.75
2022-10-31T11:44:29.477Z,101058.97
2022-10-31T11:49:41.166Z,101056.88
2022-10-31T11:54:49.359Z,101046.88
2022-10-31T11:59:59.596Z,101036.06
2022-10-31T12:05:30.434Z,101020.13
2022-10-31T12:10:53.290Z,101012.09
2022-10-31T12:16:21.543Z,101002.94
2022-10-31T12:21:47.885Z,100997.59
2022-10-31T12:27:07.674Z,100976.84
2022-10-31T12:32:30.308Z,100964.63
2022-10-31T12:38:00.189Z,100951.00
2022-10-31T12:43:17.155Z,100941.44
2022-10-31T12:48:46.753Z,100921.66
2022-10-31T12:54:13.385Z,100915.94
2022-10-31T12:59:37.300Z,100895.50
2022-10-31T13:04:55.772Z,100899.69
2022-10-31T13:10:20.753Z,100885.47
2022-10-31T13:15:26.364Z,100873.16
2022-10-31T13:20:42.611Z,100868.59
2022-10-31T13:25:51.057Z,100847.94
2022-10-31T13:30:54.022Z,100836.41
2022-10-31T13:36:07.824Z,100817.78
2022-10-31T13:41:36.519Z,100811.69
2022-10-31T13:46:41.083Z,100794.47
2022-10-31T13:51:43.207Z,100785.50
2022-10-31T13:56:50.958Z,100777.47
2022-10-31T14:01:57.536Z,100798.09
2022-10-31T14:07:10.684Z,100785.69
2022-10-31T14:12:23.707Z,100789.31
2022-10-31T14:17:28.299Z,100783.38
2022-10-31T14:22:37.450Z,100774.44
2022-10-31T14:27:47.252Z,100757.91
2022-10-31T14:33:19.556Z,100752.28
2022-10-31T14:38:35.605Z,100744.44
2022-10-31T14:43:59.162Z,100739.91
2022-10-31T14:49:45.764Z,100723.66
2022-10-31T14:54:52.861Z,100712.34
2022-10-31T15:00:02.685Z,100695.66
2022-10-31T15:05:10.827Z,100696.50
2022-10-31T15:10:26.505Z,100697.88
2022-10-31T15:15:28.508Z,100689.81
2022-10-31T15:20:35.112Z,100686.47
2022-10-31T15:25:37.313Z,100690.53
2022-10-31T15:30:39.175Z,100685.63
2022-10-31T15:35:41.076Z,100679.53
2022-10-31T15:40:54.585Z,100672.84
2022-10-31T15:45:57.628Z,100672.75
2022-10-31T15:51:00.157Z,100655.34
2022-10-31T15:56:14.318Z,100662.47
2022-10-31T16:01:30.974Z,100665.72
2022-10-31T16:06:36.144Z,100656.28
2022-10-31T16:11:40.243Z,100658.97
2022-10-31T16:16:49.630Z,100649.03
2022-10-31T16:22:12.955Z,100645.38
2022-10-31T16:27:29.607Z,100652.66
2022-10-31T16:32:38.096Z,100650.13
2022-10-31T16:37:41.251Z,100649.88
2022-10-31T16:42:44.435Z,100661.41
2022-10-31T16:47:46.551Z,100662.72
2022-10-31T16:58:17.255Z,100631.06
2022-10-31T17:03:19.197Z,100633.97
2022-10-31T17:08:20.973Z,100622.28
2022-10-31T17:13:26.270Z,100613.84
2022-10-31T17:18:28.383Z,100604.44
2022-10-31T17:23:30.737Z,100600.25
2022-10-31T17:28:32.595Z,100602.41
2022-10-31T17:33:34.433Z,100588.06
2022-10-31T17:38:38.258Z,100598.56
2022-10-31T17:43:40.310Z,100595.13
2022-10-31T17:48:42.103Z,100597.59
2022-10-31T17:53:43.919Z,100596.22
2022-10-31T17:58:45.854Z,100593.63
2022-10-31T18:03:47.561Z,100593.00
2022-10-31T18:08:49.232Z,100585.09
2022-10-31T18:13:58.472Z,100573.09
2022-10-31T18:19:02.147Z,100563.91
2022-10-31T18:24:04.325Z,100566.06
2022-10-31T18:29:06.787Z,100565.81
2022-10-31T18:34:09.224Z,100556.84
2022-10-31T18:39:13.978Z,100561.13
2022-10-31T18:44:15.960Z,100553.44
2022-10-31T18:49:22.739Z,100552.13
2022-10-31T18:54:24.502Z,100541.56
2022-10-31T18:59:26.273Z,100533.09
2022-10-31T19:04:28.398Z,100544.25
2022-10-31T19:09:31.374Z,100541.78
2022-10-31T19:14:33.153Z,100533.75
2022-10-31T19:19:35.191Z,100526.47
2022-10-31T19:24:37.162Z,100525.84
2022-10-31T19:29:40.151Z,100519.63
2022-10-31T19:34:41.911Z,100520.47
2022-10-31T19:39:44.448Z,100518.56
2022-10-31T19:44:46.435Z,100517.06
2022-10-31T19:49:48.473Z,100522.88
2022-10-31T19:54:50.348Z,100517.72
2022-10-31T19:59:52.065Z,100505.31
2022-10-31T20:04:53.901Z,100495.69
2022-10-31T20:09:56.343Z,100491.00
2022-10-31T20:14:58.426Z,100489.50
2022-10-31T20:20:00.518Z,100489.50
2022-10-31T20:25:04.156Z,100472.28
2022-10-31T20:30:06.771Z,100465.75
2022-10-31T20:35:09.306Z,100467.03
2022-10-31T20:40:11.406Z,100451.88
2022-10-31T20:45:13.159Z,100454.97
2022-10-31T20:50:15.372Z,100447.38
2022-10-31T20:55:17.568Z,100448.97
2022-10-31T21:00:19.467Z,100448.13
2022-10-31T21:05:21.332Z,100449.06
2022-10-31T21:10:23.318Z,100461.06
2022-10-31T21:15:25.066Z,100442.69
2022-10-31T21:20:26.864Z,100443.31
2022-10-31T21:25:28.932Z,100435.84
2022-10-31T21:30:30.941Z,100435.50
2022-10-31T21:35:32.849Z,100424.06
2022-10-31T21:40:34.810Z,100414.47
2022-10-31T21:45:36.627Z,100408.47
2022-10-31T21:50:38.659Z,100420.25
2022-10-31T21:55:40.608Z,100422.59
2022-10-31T22:00:42.533Z,100425.34
2022-10-31T22:05:44.261Z,100429.63
2022-10-31T22:10:45.894Z,100434.13
2022-10-31T22:15:47.632Z,100437.22
2022-10-31T22:20:49.349Z,100429.94
2022-10-31T22:25:51.127Z,100433.28
2022-10-31T22:30:52.873Z,100421.91
2022-10-31T22:35:54.807Z,100413.28
2022-10-31T22:40:58.868Z,100411.03
2022-10-31T22:46:03.837Z,100406.22
2022-10-31T22:51:14.010Z,100399.94
2022-10-31T22:56:18.711Z,100400.03
2022-10-31T23:01:24.226Z,100387.94
2022-10-31T23:06:30.240Z,100393.09
2022-10-31T23:11:35.032Z,100379.41
2022-10-31T23:16:54.702Z,100392.44
2022-10-31T23:22:00.958Z,100388.91
2022-10-31T23:27:11.326Z,100393.09
2022-10-31T23:32:30.369Z,100389.22
2022-10-31T23:37:34.263Z,100385.25
2022-10-31T23:42:36.408Z,100382.81
2022-10-31T23:47:42.411Z,100374.69
2022-10-31T23:52:45.443Z,100367.09
2022-10-31T23:57:47.378Z,100354.50
